sensor_id;sensor_type;location;lat;lon;timestamp;P1;durP1;ratioP1;P2;durP2;ratioP2
23317;SDS011;11831;55.918;37.746;2024-01-30T00:00:29;7.72;;;5.68;;
23317;SDS011;11831;55.918;37.746;2024-01-30T00:02:56;8.05;;;5.45;;
23317;SDS011;11831;55.918;37.746;2024-01-30T00:05:22;8.00;;;5.80;;
23317;SDS011;11831;55.918;37.746;2024-01-30T00:07:49;8.57;;;5.55;;
23317;SDS011;11831;55.918;37.746;2024-01-30T00:10:16;7.60;;;5.57;;
23317;SDS011;11831;55.918;37.746;2024-01-30T00:12:43;8.70;;;5.18;;
23317;SDS011;11831;55.918;37.746;2024-01-30T00:15:10;8.05;;;5.45;;
23317;SDS011;11831;55.918;37.746;2024-01-30T00:17:36;8.90;;;6.12;;
23317;SDS011;11831;55.918;37.746;2024-01-30T00:20:03;8.10;;;5.62;;
23317;SDS011;11831;55.918;37.746;2024-01-30T00:22:35;7.87;;;5.00;;
23317;SDS011;11831;55.918;37.746;2024-01-30T00:25:01;7.37;;;5.72;;
23317;SDS011;11831;55.918;37.746;2024-01-30T00:27:30;8.15;;;5.85;;
23317;SDS011;11831;55.918;37.746;2024-01-30T00:29:57;8.30;;;5.62;;
23317;SDS011;11831;55.918;37.746;2024-01-30T00:32:23;6.90;;;5.15;;
23317;SDS011;11831;55.918;37.746;2024-01-30T00:34:50;5.95;;;4.82;;
23317;SDS011;11831;55.918;37.746;2024-01-30T00:37:17;8.82;;;5.93;;
23317;SDS011;11831;55.918;37.746;2024-01-30T00:39:44;7.62;;;6.03;;
23317;SDS011;11831;55.918;37.746;2024-01-30T00:42:10;7.30;;;5.70;;
23317;SDS011;11831;55.918;37.746;2024-01-30T00:44:36;9.00;;;5.60;;
23317;SDS011;11831;55.918;37.746;2024-01-30T00:47:04;9.20;;;5.78;;
23317;SDS011;11831;55.918;37.746;2024-01-30T00:49:31;7.20;;;5.20;;
23317;SDS011;11831;55.918;37.746;2024-01-30T00:51:58;7.87;;;5.68;;
23317;SDS011;11831;55.918;37.746;2024-01-30T00:54:24;6.97;;;5.25;;
23317;SDS011;11831;55.918;37.746;2024-01-30T00:56:51;6.70;;;5.37;;
23317;SDS011;11831;55.918;37.746;2024-01-30T00:59:17;6.80;;;5.03;;
23317;SDS011;11831;55.918;37.746;2024-01-30T01:01:44;6.12;;;4.78;;
23317;SDS011;11831;55.918;37.746;2024-01-30T01:04:11;6.35;;;5.62;;
23317;SDS011;11831;55.918;37.746;2024-01-30T01:06:37;6.87;;;5.03;;
23317;SDS011;11831;55.918;37.746;2024-01-30T01:09:04;8.35;;;5.12;;
23317;SDS011;11831;55.918;37.746;2024-01-30T01:11:30;7.30;;;5.37;;
23317;SDS011;11831;55.918;37.746;2024-01-30T01:13:57;7.00;;;5.60;;
23317;SDS011;11831;55.918;37.746;2024-01-30T01:16:24;6.30;;;5.05;;
23317;SDS011;11831;55.918;37.746;2024-01-30T01:18:51;7.12;;;4.85;;
23317;SDS011;11831;55.918;37.746;2024-01-30T01:21:17;9.55;;;6.32;;
23317;SDS011;11831;55.918;37.746;2024-01-30T01:23:44;7.40;;;5.30;;
23317;SDS011;11831;55.918;37.746;2024-01-30T01:26:11;8.23;;;5.90;;
23317;SDS011;11831;55.918;37.746;2024-01-30T01:28:39;7.32;;;5.12;;
23317;SDS011;11831;55.918;37.746;2024-01-30T01:31:07;6.47;;;5.05;;
23317;SDS011;11831;55.918;37.746;2024-01-30T01:33:34;7.30;;;5.70;;
23317;SDS011;11831;55.918;37.746;2024-01-30T01:36:03;6.93;;;5.68;;
23317;SDS011;11831;55.918;37.746;2024-01-30T01:38:29;7.32;;;5.95;;
23317;SDS011;11831;55.918;37.746;2024-01-30T01:40:56;8.35;;;5.65;;
23317;SDS011;11831;55.918;37.746;2024-01-30T01:43:23;6.75;;;5.12;;
23317;SDS011;11831;55.918;37.746;2024-01-30T01:45:50;8.38;;;5.50;;
23317;SDS011;11831;55.918;37.746;2024-01-30T01:48:16;6.68;;;5.07;;
23317;SDS011;11831;55.918;37.746;2024-01-30T01:50:43;5.53;;;3.67;;
23317;SDS011;11831;55.918;37.746;2024-01-30T01:53:10;7.93;;;5.40;;
23317;SDS011;11831;55.918;37.746;2024-01-30T01:55:38;6.28;;;5.20;;
23317;SDS011;11831;55.918;37.746;2024-01-30T01:58:05;8.13;;;5.93;;
23317;SDS011;11831;55.918;37.746;2024-01-30T02:00:32;7.82;;;5.57;;
23317;SDS011;11831;55.918;37.746;2024-01-30T02:02:58;6.90;;;5.10;;
23317;SDS011;11831;55.918;37.746;2024-01-30T02:05:26;7.10;;;5.57;;
23317;SDS011;11831;55.918;37.746;2024-01-30T02:07:53;7.82;;;5.18;;
23317;SDS011;11831;55.918;37.746;2024-01-30T02:10:20;7.78;;;5.28;;
23317;SDS011;11831;55.918;37.746;2024-01-30T02:12:48;7.82;;;5.87;;
23317;SDS011;11831;55.918;37.746;2024-01-30T02:15:15;7.30;;;5.20;;
23317;SDS011;11831;55.918;37.746;2024-01-30T02:17:42;6.72;;;4.97;;
23317;SDS011;11831;55.918;37.746;2024-01-30T02:20:09;7.28;;;5.80;;
23317;SDS011;11831;55.918;37.746;2024-01-30T02:22:36;7.72;;;6.07;;
23317;SDS011;11831;55.918;37.746;2024-01-30T02:25:04;8.43;;;5.22;;
23317;SDS011;11831;55.918;37.746;2024-01-30T02:27:31;8.18;;;5.57;;
23317;SDS011;11831;55.918;37.746;2024-01-30T02:29:58;7.65;;;5.60;;
23317;SDS011;11831;55.918;37.746;2024-01-30T02:32:25;8.13;;;5.57;;
23317;SDS011;11831;55.918;37.746;2024-01-30T02:34:52;8.23;;;5.37;;
23317;SDS011;11831;55.918;37.746;2024-01-30T02:37:18;7.90;;;5.53;;
23317;SDS011;11831;55.918;37.746;2024-01-30T02:39:45;8.85;;;5.30;;
23317;SDS011;11831;55.918;37.746;2024-01-30T02:42:11;8.63;;;5.32;;
23317;SDS011;11831;55.918;37.746;2024-01-30T02:44:38;7.65;;;5.85;;
23317;SDS011;11831;55.918;37.746;2024-01-30T02:47:04;6.70;;;5.40;;
23317;SDS011;11831;55.918;37.746;2024-01-30T02:49:31;8.27;;;5.45;;
23317;SDS011;11831;55.918;37.746;2024-01-30T02:51:58;7.28;;;5.47;;
23317;SDS011;11831;55.918;37.746;2024-01-30T02:54:24;7.93;;;5.00;;
23317;SDS011;11831;55.918;37.746;2024-01-30T02:56:50;7.15;;;5.53;;
23317;SDS011;11831;55.918;37.746;2024-01-30T02:59:17;7.68;;;5.10;;
23317;SDS011;11831;55.918;37.746;2024-01-30T03:01:43;7.10;;;5.28;;
23317;SDS011;11831;55.918;37.746;2024-01-30T03:04:11;8.75;;;5.90;;
23317;SDS011;11831;55.918;37.746;2024-01-30T03:06:37;7.65;;;5.78;;
23317;SDS011;11831;55.918;37.746;2024-01-30T03:09:04;7.60;;;5.70;;
23317;SDS011;11831;55.918;37.746;2024-01-30T03:11:30;7.70;;;6.03;;
23317;SDS011;11831;55.918;37.746;2024-01-30T03:13:57;7.05;;;5.25;;
23317;SDS011;11831;55.918;37.746;2024-01-30T03:16:24;7.75;;;5.50;;
23317;SDS011;11831;55.918;37.746;2024-01-30T03:18:51;7.18;;;5.95;;
23317;SDS011;11831;55.918;37.746;2024-01-30T03:21:17;7.80;;;5.12;;
23317;SDS011;11831;55.918;37.746;2024-01-30T03:23:43;9.95;;;5.70;;
23317;SDS011;11831;55.918;37.746;2024-01-30T03:26:10;7.65;;;5.75;;
23317;SDS011;11831;55.918;37.746;2024-01-30T03:28:38;7.53;;;6.05;;
23317;SDS011;11831;55.918;37.746;2024-01-30T03:31:05;7.70;;;6.05;;
23317;SDS011;11831;55.918;37.746;2024-01-30T03:33:31;10.43;;;6.75;;
23317;SDS011;11831;55.918;37.746;2024-01-30T03:35:57;8.85;;;5.57;;
23317;SDS011;11831;55.918;37.746;2024-01-30T03:38:29;8.93;;;6.37;;
23317;SDS011;11831;55.918;37.746;2024-01-30T03:40:58;7.00;;;5.10;;
23317;SDS011;11831;55.918;37.746;2024-01-30T03:43:26;8.88;;;6.32;;
23317;SDS011;11831;55.918;37.746;2024-01-30T03:45:52;8.88;;;6.03;;
23317;SDS011;11831;55.918;37.746;2024-01-30T03:48:20;7.80;;;5.57;;
23317;SDS011;11831;55.918;37.746;2024-01-30T03:50:47;9.23;;;6.55;;
23317;SDS011;11831;55.918;37.746;2024-01-30T03:53:14;8.75;;;5.60;;
23317;SDS011;11831;55.918;37.746;2024-01-30T03:55:41;10.55;;;6.72;;
23317;SDS011;11831;55.918;37.746;2024-01-30T03:58:07;9.38;;;6.30;;
23317;SDS011;11831;55.918;37.746;2024-01-30T04:00:34;8.75;;;5.68;;
23317;SDS011;11831;55.918;37.746;2024-01-30T04:03:01;8.10;;;6.40;;
23317;SDS011;11831;55.918;37.746;2024-01-30T04:05:28;8.88;;;6.37;;
23317;SDS011;11831;55.918;37.746;2024-01-30T04:07:54;9.93;;;6.25;;
23317;SDS011;11831;55.918;37.746;2024-01-30T04:10:21;10.02;;;6.72;;
23317;SDS011;11831;55.918;37.746;2024-01-30T04:12:49;8.40;;;6.28;;
23317;SDS011;11831;55.918;37.746;2024-01-30T04:15:15;8.20;;;6.47;;
23317;SDS011;11831;55.918;37.746;2024-01-30T04:17:42;9.95;;;6.40;;
23317;SDS011;11831;55.918;37.746;2024-01-30T04:20:18;10.10;;;6.53;;
23317;SDS011;11831;55.918;37.746;2024-01-30T04:22:45;9.63;;;6.87;;
23317;SDS011;11831;55.918;37.746;2024-01-30T04:25:15;8.68;;;6.93;;
23317;SDS011;11831;55.918;37.746;2024-01-30T04:27:41;7.15;;;5.37;;
23317;SDS011;11831;55.918;37.746;2024-01-30T04:30:08;10.43;;;7.00;;
23317;SDS011;11831;55.918;37.746;2024-01-30T04:32:36;8.40;;;6.25;;
23317;SDS011;11831;55.918;37.746;2024-01-30T04:35:03;8.30;;;6.75;;
23317;SDS011;11831;55.918;37.746;2024-01-30T04:37:30;8.93;;;6.87;;
23317;SDS011;11831;55.918;37.746;2024-01-30T04:39:57;10.30;;;6.50;;
23317;SDS011;11831;55.918;37.746;2024-01-30T04:42:24;10.25;;;6.80;;
23317;SDS011;11831;55.918;37.746;2024-01-30T04:44:50;8.13;;;6.32;;
23317;SDS011;11831;55.918;37.746;2024-01-30T04:47:17;8.77;;;6.85;;
23317;SDS011;11831;55.918;37.746;2024-01-30T04:49:43;9.23;;;6.43;;
23317;SDS011;11831;55.918;37.746;2024-01-30T04:52:09;10.82;;;7.03;;
23317;SDS011;11831;55.918;37.746;2024-01-30T04:54:36;7.35;;;5.20;;
23317;SDS011;11831;55.918;37.746;2024-01-30T04:57:03;8.75;;;7.10;;
23317;SDS011;11831;55.918;37.746;2024-01-30T04:59:31;8.82;;;6.57;;
23317;SDS011;11831;55.918;37.746;2024-01-30T05:01:58;9.25;;;7.00;;
23317;SDS011;11831;55.918;37.746;2024-01-30T05:04:24;13.57;;;7.32;;
23317;SDS011;11831;55.918;37.746;2024-01-30T05:06:51;11.38;;;6.37;;
23317;SDS011;11831;55.918;37.746;2024-01-30T05:09:17;8.93;;;6.50;;
23317;SDS011;11831;55.918;37.746;2024-01-30T05:11:44;9.82;;;6.57;;
23317;SDS011;11831;55.918;37.746;2024-01-30T05:14:11;12.30;;;7.22;;
23317;SDS011;11831;55.918;37.746;2024-01-30T05:16:38;9.32;;;6.62;;
23317;SDS011;11831;55.918;37.746;2024-01-30T05:19:04;9.82;;;6.18;;
23317;SDS011;11831;55.918;37.746;2024-01-30T05:21:31;10.85;;;7.05;;
23317;SDS011;11831;55.918;37.746;2024-01-30T05:23:57;10.48;;;7.25;;
23317;SDS011;11831;55.918;37.746;2024-01-30T05:26:24;12.65;;;7.80;;
23317;SDS011;11831;55.918;37.746;2024-01-30T05:28:50;12.45;;;7.62;;
23317;SDS011;11831;55.918;37.746;2024-01-30T05:31:35;8.57;;;5.32;;
23317;SDS011;11831;55.918;37.746;2024-01-30T05:36:46;10.95;;;7.37;;
23317;SDS011;11831;55.918;37.746;2024-01-30T05:39:13;9.35;;;5.97;;
23317;SDS011;11831;55.918;37.746;2024-01-30T05:41:39;11.32;;;6.47;;
23317;SDS011;11831;55.918;37.746;2024-01-30T05:44:06;10.55;;;7.53;;
23317;SDS011;11831;55.918;37.746;2024-01-30T05:46:33;9.30;;;6.37;;
23317;SDS011;11831;55.918;37.746;2024-01-30T05:48:59;14.32;;;8.45;;
23317;SDS011;11831;55.918;37.746;2024-01-30T05:51:26;13.45;;;8.65;;
23317;SDS011;11831;55.918;37.746;2024-01-30T05:53:53;10.75;;;8.02;;
23317;SDS011;11831;55.918;37.746;2024-01-30T05:56:20;11.40;;;7.22;;
23317;SDS011;11831;55.918;37.746;2024-01-30T05:58:47;10.27;;;7.95;;
23317;SDS011;11831;55.918;37.746;2024-01-30T06:01:13;10.20;;;7.80;;
23317;SDS011;11831;55.918;37.746;2024-01-30T06:03:40;10.45;;;7.00;;
23317;SDS011;11831;55.918;37.746;2024-01-30T06:06:06;12.90;;;8.10;;
23317;SDS011;11831;55.918;37.746;2024-01-30T06:08:33;11.18;;;7.78;;
23317;SDS011;11831;55.918;37.746;2024-01-30T06:10:59;12.88;;;7.65;;
23317;SDS011;11831;55.918;37.746;2024-01-30T06:13:26;12.77;;;8.48;;
23317;SDS011;11831;55.918;37.746;2024-01-30T06:15:53;14.35;;;7.87;;
23317;SDS011;11831;55.918;37.746;2024-01-30T06:18:19;15.65;;;8.07;;
23317;SDS011;11831;55.918;37.746;2024-01-30T06:20:46;12.25;;;8.13;;
23317;SDS011;11831;55.918;37.746;2024-01-30T06:23:12;13.52;;;7.80;;
23317;SDS011;11831;55.918;37.746;2024-01-30T06:25:40;10.93;;;7.82;;
23317;SDS011;11831;55.918;37.746;2024-01-30T06:28:07;12.52;;;8.77;;
23317;SDS011;11831;55.918;37.746;2024-01-30T06:30:33;14.43;;;8.45;;
23317;SDS011;11831;55.918;37.746;2024-01-30T06:32:59;12.73;;;8.30;;
23317;SDS011;11831;55.918;37.746;2024-01-30T06:35:26;10.95;;;7.43;;
23317;SDS011;11831;55.918;37.746;2024-01-30T06:37:55;28.70;;;7.22;;
23317;SDS011;11831;55.918;37.746;2024-01-30T06:40:21;12.70;;;8.30;;
23317;SDS011;11831;55.918;37.746;2024-01-30T06:42:47;14.27;;;8.90;;
23317;SDS011;11831;55.918;37.746;2024-01-30T06:45:14;16.40;;;9.77;;
23317;SDS011;11831;55.918;37.746;2024-01-30T06:47:41;14.43;;;8.38;;
23317;SDS011;11831;55.918;37.746;2024-01-30T06:50:08;12.35;;;8.55;;
23317;SDS011;11831;55.918;37.746;2024-01-30T06:52:34;12.75;;;8.27;;
23317;SDS011;11831;55.918;37.746;2024-01-30T06:55:01;12.52;;;7.85;;
23317;SDS011;11831;55.918;37.746;2024-01-30T06:57:30;14.20;;;8.15;;
23317;SDS011;11831;55.918;37.746;2024-01-30T06:59:57;12.57;;;8.65;;
23317;SDS011;11831;55.918;37.746;2024-01-30T07:02:23;11.07;;;8.52;;
23317;SDS011;11831;55.918;37.746;2024-01-30T07:04:50;15.57;;;8.80;;
23317;SDS011;11831;55.918;37.746;2024-01-30T07:07:16;14.27;;;8.60;;
23317;SDS011;11831;55.918;37.746;2024-01-30T07:09:43;17.52;;;9.52;;
23317;SDS011;11831;55.918;37.746;2024-01-30T07:12:09;11.93;;;7.82;;
23317;SDS011;11831;55.918;37.746;2024-01-30T07:14:36;12.70;;;8.57;;
23317;SDS011;11831;55.918;37.746;2024-01-30T07:17:03;12.27;;;7.55;;
23317;SDS011;11831;55.918;37.746;2024-01-30T07:19:29;11.90;;;8.10;;
23317;SDS011;11831;55.918;37.746;2024-01-30T07:21:55;10.98;;;7.68;;
23317;SDS011;11831;55.918;37.746;2024-01-30T07:24:22;12.10;;;8.02;;
23317;SDS011;11831;55.918;37.746;2024-01-30T07:26:48;11.70;;;8.00;;
23317;SDS011;11831;55.918;37.746;2024-01-30T07:29:15;15.15;;;7.70;;
23317;SDS011;11831;55.918;37.746;2024-01-30T07:31:41;13.00;;;7.72;;
23317;SDS011;11831;55.918;37.746;2024-01-30T07:34:08;14.75;;;8.48;;
23317;SDS011;11831;55.918;37.746;2024-01-30T07:36:35;12.73;;;8.77;;
23317;SDS011;11831;55.918;37.746;2024-01-30T07:39:01;13.57;;;8.93;;
23317;SDS011;11831;55.918;37.746;2024-01-30T07:41:27;13.27;;;8.30;;
23317;SDS011;11831;55.918;37.746;2024-01-30T07:43:54;15.88;;;8.13;;
23317;SDS011;11831;55.918;37.746;2024-01-30T07:46:21;12.40;;;8.48;;
23317;SDS011;11831;55.918;37.746;2024-01-30T07:48:47;16.02;;;8.38;;
23317;SDS011;11831;55.918;37.746;2024-01-30T07:51:13;13.32;;;8.60;;
23317;SDS011;11831;55.918;37.746;2024-01-30T07:53:40;11.38;;;8.52;;
23317;SDS011;11831;55.918;37.746;2024-01-30T07:56:17;13.40;;;7.43;;
23317;SDS011;11831;55.918;37.746;2024-01-30T07:58:43;14.65;;;9.10;;
23317;SDS011;11831;55.918;37.746;2024-01-30T08:01:11;12.07;;;8.68;;
23317;SDS011;11831;55.918;37.746;2024-01-30T08:03:37;13.77;;;8.77;;
23317;SDS011;11831;55.918;37.746;2024-01-30T08:06:05;15.13;;;8.68;;
23317;SDS011;11831;55.918;37.746;2024-01-30T08:08:32;15.25;;;8.57;;
23317;SDS011;11831;55.918;37.746;2024-01-30T08:10:59;14.38;;;8.13;;
23317;SDS011;11831;55.918;37.746;2024-01-30T08:13:25;13.45;;;8.68;;
23317;SDS011;11831;55.918;37.746;2024-01-30T08:15:52;13.05;;;8.57;;
23317;SDS011;11831;55.918;37.746;2024-01-30T08:18:18;12.68;;;8.32;;
23317;SDS011;11831;55.918;37.746;2024-01-30T08:20:45;15.13;;;8.25;;
23317;SDS011;11831;55.918;37.746;2024-01-30T08:23:11;13.13;;;8.43;;
23317;SDS011;11831;55.918;37.746;2024-01-30T08:25:37;12.57;;;8.38;;
23317;SDS011;11831;55.918;37.746;2024-01-30T08:28:04;12.43;;;8.32;;
23317;SDS011;11831;55.918;37.746;2024-01-30T08:30:30;15.98;;;7.85;;
23317;SDS011;11831;55.918;37.746;2024-01-30T08:32:57;12.73;;;7.12;;
23317;SDS011;11831;55.918;37.746;2024-01-30T08:35:23;13.48;;;8.27;;
23317;SDS011;11831;55.918;37.746;2024-01-30T08:37:50;13.68;;;8.35;;
23317;SDS011;11831;55.918;37.746;2024-01-30T08:40:16;11.18;;;7.43;;
23317;SDS011;11831;55.918;37.746;2024-01-30T08:42:43;14.65;;;8.95;;
23317;SDS011;11831;55.918;37.746;2024-01-30T08:45:10;12.37;;;7.75;;
23317;SDS011;11831;55.918;37.746;2024-01-30T08:47:36;14.68;;;8.90;;
23317;SDS011;11831;55.918;37.746;2024-01-30T08:50:03;11.85;;;8.75;;
23317;SDS011;11831;55.918;37.746;2024-01-30T08:52:32;12.37;;;8.55;;
23317;SDS011;11831;55.918;37.746;2024-01-30T08:55:00;12.90;;;8.73;;
23317;SDS011;11831;55.918;37.746;2024-01-30T08:57:27;11.75;;;7.60;;
23317;SDS011;11831;55.918;37.746;2024-01-30T08:59:56;12.07;;;8.50;;
23317;SDS011;11831;55.918;37.746;2024-01-30T09:02:23;11.30;;;8.25;;
23317;SDS011;11831;55.918;37.746;2024-01-30T09:04:49;13.90;;;8.45;;
23317;SDS011;11831;55.918;37.746;2024-01-30T09:07:15;11.20;;;7.45;;
23317;SDS011;11831;55.918;37.746;2024-01-30T09:09:42;12.77;;;8.45;;
23317;SDS011;11831;55.918;37.746;2024-01-30T09:12:08;15.68;;;8.13;;
23317;SDS011;11831;55.918;37.746;2024-01-30T09:14:37;11.15;;;8.25;;
23317;SDS011;11831;55.918;37.746;2024-01-30T09:17:05;11.07;;;8.88;;
23317;SDS011;11831;55.918;37.746;2024-01-30T09:19:31;10.60;;;7.22;;
23317;SDS011;11831;55.918;37.746;2024-01-30T09:21:57;12.90;;;8.93;;
23317;SDS011;11831;55.918;37.746;2024-01-30T09:24:25;11.90;;;8.38;;
23317;SDS011;11831;55.918;37.746;2024-01-30T09:26:52;14.57;;;8.48;;
23317;SDS011;11831;55.918;37.746;2024-01-30T09:29:19;12.05;;;8.90;;
23317;SDS011;11831;55.918;37.746;2024-01-30T09:31:45;10.80;;;6.40;;
23317;SDS011;11831;55.918;37.746;2024-01-30T09:34:12;10.80;;;8.18;;
23317;SDS011;11831;55.918;37.746;2024-01-30T09:36:39;14.45;;;8.40;;
23317;SDS011;11831;55.918;37.746;2024-01-30T09:39:06;12.88;;;7.80;;
23317;SDS011;11831;55.918;37.746;2024-01-30T09:41:33;11.25;;;8.10;;
23317;SDS011;11831;55.918;37.746;2024-01-30T09:44:11;13.25;;;8.30;;
23317;SDS011;11831;55.918;37.746;2024-01-30T09:49:31;12.48;;;8.02;;
23317;SDS011;11831;55.918;37.746;2024-01-30T09:51:58;12.23;;;7.87;;
23317;SDS011;11831;55.918;37.746;2024-01-30T09:54:26;12.65;;;8.65;;
23317;SDS011;11831;55.918;37.746;2024-01-30T09:56:54;12.65;;;8.60;;
23317;SDS011;11831;55.918;37.746;2024-01-30T09:59:20;13.40;;;8.57;;
23317;SDS011;11831;55.918;37.746;2024-01-30T10:01:47;13.25;;;8.57;;
23317;SDS011;11831;55.918;37.746;2024-01-30T10:04:15;12.98;;;8.50;;
23317;SDS011;11831;55.918;37.746;2024-01-30T10:06:42;13.55;;;8.73;;
23317;SDS011;11831;55.918;37.746;2024-01-30T10:09:09;12.20;;;8.65;;
23317;SDS011;11831;55.918;37.746;2024-01-30T10:11:36;12.40;;;8.45;;
23317;SDS011;11831;55.918;37.746;2024-01-30T10:14:02;13.07;;;8.70;;
23317;SDS011;11831;55.918;37.746;2024-01-30T10:16:29;15.75;;;10.60;;
23317;SDS011;11831;55.918;37.746;2024-01-30T10:18:55;10.90;;;8.30;;
23317;SDS011;11831;55.918;37.746;2024-01-30T10:21:22;14.63;;;8.80;;
23317;SDS011;11831;55.918;37.746;2024-01-30T10:23:49;17.25;;;9.90;;
23317;SDS011;11831;55.918;37.746;2024-01-30T10:26:16;11.38;;;8.25;;
23317;SDS011;11831;55.918;37.746;2024-01-30T10:28:46;12.45;;;8.75;;
23317;SDS011;11831;55.918;37.746;2024-01-30T10:31:31;12.23;;;8.88;;
23317;SDS011;11831;55.918;37.746;2024-01-30T10:33:58;13.50;;;8.30;;
23317;SDS011;11831;55.918;37.746;2024-01-30T10:36:26;10.70;;;7.35;;
23317;SDS011;11831;55.918;37.746;2024-01-30T10:38:55;14.07;;;9.27;;
23317;SDS011;11831;55.918;37.746;2024-01-30T10:41:26;18.00;;;8.80;;
23317;SDS011;11831;55.918;37.746;2024-01-30T10:44:05;12.48;;;8.23;;
23317;SDS011;11831;55.918;37.746;2024-01-30T10:46:35;13.23;;;8.40;;
23317;SDS011;11831;55.918;37.746;2024-01-30T10:49:04;11.10;;;8.00;;
23317;SDS011;11831;55.918;37.746;2024-01-30T10:51:32;13.50;;;8.65;;
23317;SDS011;11831;55.918;37.746;2024-01-30T10:54:01;12.85;;;8.95;;
23317;SDS011;11831;55.918;37.746;2024-01-30T10:56:29;18.00;;;8.98;;
23317;SDS011;11831;55.918;37.746;2024-01-30T10:58:58;15.60;;;9.75;;
23317;SDS011;11831;55.918;37.746;2024-01-30T11:01:25;15.45;;;9.10;;
23317;SDS011;11831;55.918;37.746;2024-01-30T11:03:54;15.00;;;9.45;;
23317;SDS011;11831;55.918;37.746;2024-01-30T11:06:23;15.98;;;9.27;;
23317;SDS011;11831;55.918;37.746;2024-01-30T11:09:00;12.50;;;9.30;;
23317;SDS011;11831;55.918;37.746;2024-01-30T11:14:29;15.95;;;8.80;;
23317;SDS011;11831;55.918;37.746;2024-01-30T11:16:59;18.70;;;9.90;;
23317;SDS011;11831;55.918;37.746;2024-01-30T11:19:26;17.02;;;9.90;;
23317;SDS011;11831;55.918;37.746;2024-01-30T11:21:53;17.45;;;9.27;;
23317;SDS011;11831;55.918;37.746;2024-01-30T11:24:20;14.80;;;9.45;;
23317;SDS011;11831;55.918;37.746;2024-01-30T11:26:55;16.02;;;9.77;;
23317;SDS011;11831;55.918;37.746;2024-01-30T11:29:26;15.50;;;9.80;;
23317;SDS011;11831;55.918;37.746;2024-01-30T11:31:54;18.95;;;11.38;;
23317;SDS011;11831;55.918;37.746;2024-01-30T11:34:21;16.87;;;10.13;;
23317;SDS011;11831;55.918;37.746;2024-01-30T11:36:53;15.82;;;9.32;;
23317;SDS011;11831;55.918;37.746;2024-01-30T11:39:25;17.92;;;9.23;;
23317;SDS011;11831;55.918;37.746;2024-01-30T11:41:52;15.30;;;9.43;;
23317;SDS011;11831;55.918;37.746;2024-01-30T11:44:20;15.63;;;9.88;;
23317;SDS011;11831;55.918;37.746;2024-01-30T11:46:48;10.90;;;8.07;;
23317;SDS011;11831;55.918;37.746;2024-01-30T11:49:18;16.33;;;9.75;;
23317;SDS011;11831;55.918;37.746;2024-01-30T11:51:47;14.02;;;9.15;;
23317;SDS011;11831;55.918;37.746;2024-01-30T11:54:18;14.85;;;9.50;;
23317;SDS011;11831;55.918;37.746;2024-01-30T11:56:45;18.02;;;9.52;;
23317;SDS011;11831;55.918;37.746;2024-01-30T11:59:11;13.52;;;9.98;;
23317;SDS011;11831;55.918;37.746;2024-01-30T12:01:38;13.48;;;9.27;;
23317;SDS011;11831;55.918;37.746;2024-01-30T12:04:04;15.77;;;9.27;;
23317;SDS011;11831;55.918;37.746;2024-01-30T12:06:35;15.45;;;9.70;;
23317;SDS011;11831;55.918;37.746;2024-01-30T12:09:02;15.00;;;9.50;;
23317;SDS011;11831;55.918;37.746;2024-01-30T12:11:47;15.38;;;9.30;;
23317;SDS011;11831;55.918;37.746;2024-01-30T12:14:14;16.35;;;9.48;;
23317;SDS011;11831;55.918;37.746;2024-01-30T12:16:42;13.65;;;9.40;;
23317;SDS011;11831;55.918;37.746;2024-01-30T12:19:08;14.63;;;9.93;;
23317;SDS011;11831;55.918;37.746;2024-01-30T12:21:35;14.55;;;9.55;;
23317;SDS011;11831;55.918;37.746;2024-01-30T12:24:02;14.45;;;8.57;;
23317;SDS011;11831;55.918;37.746;2024-01-30T12:26:29;17.65;;;10.15;;
23317;SDS011;11831;55.918;37.746;2024-01-30T12:28:55;15.95;;;9.82;;
23317;SDS011;11831;55.918;37.746;2024-01-30T12:31:27;19.48;;;12.70;;
23317;SDS011;11831;55.918;37.746;2024-01-30T12:33:54;18.70;;;11.18;;
23317;SDS011;11831;55.918;37.746;2024-01-30T12:36:21;16.00;;;10.88;;
23317;SDS011;11831;55.918;37.746;2024-01-30T12:38:48;15.00;;;9.25;;
23317;SDS011;11831;55.918;37.746;2024-01-30T12:41:15;14.77;;;10.20;;
23317;SDS011;11831;55.918;37.746;2024-01-30T12:43:42;15.27;;;9.13;;
23317;SDS011;11831;55.918;37.746;2024-01-30T12:46:08;14.10;;;9.85;;
23317;SDS011;11831;55.918;37.746;2024-01-30T12:48:35;13.25;;;9.45;;
23317;SDS011;11831;55.918;37.746;2024-01-30T12:51:02;21.27;;;11.85;;
23317;SDS011;11831;55.918;37.746;2024-01-30T12:53:28;13.75;;;8.10;;
23317;SDS011;11831;55.918;37.746;2024-01-30T12:55:55;17.77;;;9.40;;
23317;SDS011;11831;55.918;37.746;2024-01-30T12:58:21;26.08;;;13.50;;
23317;SDS011;11831;55.918;37.746;2024-01-30T13:00:47;18.05;;;11.00;;
23317;SDS011;11831;55.918;37.746;2024-01-30T13:03:14;15.30;;;10.35;;
23317;SDS011;11831;55.918;37.746;2024-01-30T13:05:40;15.30;;;10.00;;
23317;SDS011;11831;55.918;37.746;2024-01-30T13:08:07;16.10;;;8.68;;
23317;SDS011;11831;55.918;37.746;2024-01-30T13:10:33;17.55;;;10.27;;
23317;SDS011;11831;55.918;37.746;2024-01-30T13:13:00;13.95;;;8.55;;
23317;SDS011;11831;55.918;37.746;2024-01-30T13:15:26;13.52;;;8.63;;
23317;SDS011;11831;55.918;37.746;2024-01-30T13:17:52;14.77;;;8.95;;
23317;SDS011;11831;55.918;37.746;2024-01-30T13:20:20;15.60;;;8.65;;
23317;SDS011;11831;55.918;37.746;2024-01-30T13:22:48;13.85;;;9.25;;
23317;SDS011;11831;55.918;37.746;2024-01-30T13:25:17;15.68;;;10.00;;
23317;SDS011;11831;55.918;37.746;2024-01-30T13:27:44;15.82;;;9.27;;
23317;SDS011;11831;55.918;37.746;2024-01-30T13:30:10;14.40;;;9.43;;
23317;SDS011;11831;55.918;37.746;2024-01-30T13:32:37;13.73;;;9.60;;
23317;SDS011;11831;55.918;37.746;2024-01-30T13:35:04;16.58;;;9.38;;
23317;SDS011;11831;55.918;37.746;2024-01-30T13:37:32;12.63;;;9.35;;
23317;SDS011;11831;55.918;37.746;2024-01-30T13:39:58;17.20;;;9.63;;
23317;SDS011;11831;55.918;37.746;2024-01-30T13:42:25;19.83;;;10.18;;
23317;SDS011;11831;55.918;37.746;2024-01-30T13:44:51;15.15;;;9.88;;
23317;SDS011;11831;55.918;37.746;2024-01-30T13:47:17;13.38;;;7.28;;
23317;SDS011;11831;55.918;37.746;2024-01-30T13:49:45;14.63;;;9.60;;
23317;SDS011;11831;55.918;37.746;2024-01-30T13:52:12;22.10;;;10.50;;
23317;SDS011;11831;55.918;37.746;2024-01-30T13:54:39;17.23;;;9.75;;
23317;SDS011;11831;55.918;37.746;2024-01-30T13:57:05;15.63;;;10.35;;
23317;SDS011;11831;55.918;37.746;2024-01-30T13:59:33;16.42;;;9.43;;
23317;SDS011;11831;55.918;37.746;2024-01-30T14:02:00;15.80;;;9.85;;
23317;SDS011;11831;55.918;37.746;2024-01-30T14:04:26;16.70;;;9.85;;
23317;SDS011;11831;55.918;37.746;2024-01-30T14:06:53;18.62;;;10.85;;
23317;SDS011;11831;55.918;37.746;2024-01-30T14:09:19;13.80;;;9.55;;
23317;SDS011;11831;55.918;37.746;2024-01-30T14:11:47;19.02;;;10.77;;
23317;SDS011;11831;55.918;37.746;2024-01-30T14:14:13;15.35;;;10.68;;
23317;SDS011;11831;55.918;37.746;2024-01-30T14:16:40;13.88;;;9.85;;
23317;SDS011;11831;55.918;37.746;2024-01-30T14:19:06;17.05;;;10.48;;
23317;SDS011;11831;55.918;37.746;2024-01-30T14:21:33;14.80;;;9.35;;
23317;SDS011;11831;55.918;37.746;2024-01-30T14:23:59;15.68;;;9.23;;
23317;SDS011;11831;55.918;37.746;2024-01-30T14:26:26;16.40;;;8.85;;
23317;SDS011;11831;55.918;37.746;2024-01-30T14:28:52;16.05;;;9.45;;
23317;SDS011;11831;55.918;37.746;2024-01-30T14:31:18;16.35;;;9.95;;
23317;SDS011;11831;55.918;37.746;2024-01-30T14:33:46;17.00;;;10.70;;